MAPA DE AEROPUERTO

INFORMACIÓN METAR y TAF


Deprecated: The each() function is deprecated. This message will be suppressed on further calls in /home/customer/www/clickair-va.com/public_html/VAM/vam/helpers/get_metar.php on line 20
METAR FOR LESA
ADDS - METARS form results

(0426 UTC 25 May 2022)
Data provider http://aviationweather.gov/metar/data/
 
METAR text: LESA 250400Z AUTO 04003KT 7000 NCD 05/04 Q1021
Conditions at: LESA (SALAMANCA (CIV/M, ES) observed 0400 UTC 25 May 2022
Temperature: 5.0°C (41°F)
Dewpoint: 4.0°C (39°F) [RH = 93%]
Pressure (altimeter): 30.15 inches Hg (1021.0 mb)
Winds: from the NE (40 degrees) at 3 MPH (3 knots; 1.5 m/s)
Visibility: 4 miles ( 7 km)
Ceiling: at least 12,000 feet AGL
Clouds: sky clear below 12,000 feet AGL
Weather: no significant weather observed at this time

METAR text: LESA 250330Z AUTO 06003KT 8000 NCD 06/04 Q1020
Conditions at: LESA (SALAMANCA (CIV/M, ES) observed 0330 UTC 25 May 2022
Temperature: 6.0°C (43°F)
Dewpoint: 4.0°C (39°F) [RH = 87%]
Pressure (altimeter): 30.12 inches Hg (1020.0 mb)
Winds: from the ENE (60 degrees) at 3 MPH (3 knots; 1.5 m/s)
Visibility: 5 miles ( 8 km)
Ceiling: at least 12,000 feet AGL
Clouds: sky clear below 12,000 feet AGL
Weather: no significant weather observed at this time

Forecast for: LESA (SALAMANCA (CIV/M, ES)
Text: TAF LESA 250200Z 2503/2603 VRB05KT 9999 FEW030 TX21/2511Z TN05/2505Z
Forecast period: 0300 to 1000 UTC 25 May 2022
Forecast type: FROM: standard forecast or significant change
Winds: variable direction winds at 6 MPH (5 knots; 2.6 m/s)
Visibility: 6 or more miles (10+ km)
Ceiling: at least 12,000 feet AGL
Clouds: few clouds at 3000 feet AGL
Weather: no significant weather forecast for this period
Text: BECMG 2510/2512 04012KT
Forecast period: 1000 UTC 25 May 2022 to 0300 UTC 26 May 2022
Forecast type: BECOMING: Conditions expected to become as follows by 1200 UTC 25 May 2022
Winds: from the NE (40 degrees) at 14 MPH (12 knots; 6.2 m/s)
Visibility: 6 or more miles (10+ km)
Ceiling: at least 12,000 feet AGL
Clouds: few clouds at 3000 feet AGL
Weather: no significant weather forecast for this period
Text: PROB40
Forecast period: 1300 to 2100 UTC 25 May 2022
Forecast type: TEMPORARY: The following changes expected for less than half the time period
Winds: from the NE (40 degrees) at 21 MPH (18 knots; 9.3 m/s)
gusting to 32 MPH (28 knots; 14.4 m/s)
Visibility: missing
Ceiling: unknown
Clouds: missing
Weather: no significant weather forecast for this period